Time;durP1;ratioP1;P1;durP2;ratioP2;P2;SDS_P1;SDS_P2;PMS_P1;PMS_P2;Temp;Humidity;BMP_temperature;BMP_pressure;BME280_temperature;BME280_humidity;BME280_pressure;Samples;Min_cycle;Max_cycle;Signal;HPM_P1;HPM_P2
2021/10/21 00:05:16;;;;;;;;;;;15.70;99.90;;;;;;21003950;28;19916;-78
2021/10/21 00:15:17;;;;;;;;;;;16.30;99.90;;;;;;21004432;28;19973;-75
2021/10/21 00:25:18;;;;;;;;;;;16.50;99.90;;;;;;21003440;28;19913;-77
2021/10/21 00:35:18;;;;;;;;;;;15.90;99.90;;;;;;20999645;28;19923;-78
2021/10/21 00:45:19;;;;;;;;;;;15.20;99.90;;;;;;21000541;28;19912;-76
2021/10/21 00:55:21;;;;;;;;;;;15.30;99.90;;;;;;21000172;28;19916;-79
2021/10/21 01:05:22;;;;;;;;;;;15.00;99.90;;;;;;20999539;28;19913;-77
2021/10/21 01:15:26;;;;;;;;;;;14.70;99.90;;;;;;21017140;28;19916;-79
2021/10/21 01:25:26;;;;;;;;;;;14.90;99.90;;;;;;21018516;28;19913;-79
2021/10/21 01:35:27;;;;;;;;;;;14.80;99.90;;;;;;21027137;28;19947;-78
2021/10/21 01:45:29;;;;;;;;;;;14.70;99.90;;;;;;21016786;28;19913;-78
2021/10/21 01:55:30;;;;;;;;;;;14.80;99.90;;;;;;21018464;28;19916;-79
2021/10/21 02:05:31;;;;;;;;;;;14.60;99.90;;;;;;21014966;28;19920;-78
2021/10/21 02:15:32;;;;;;;;;;;14.60;99.90;;;;;;21012624;28;19923;-78
2021/10/21 02:25:32;;;;;;;;;;;14.60;99.90;;;;;;21014980;28;19955;-79
2021/10/21 02:35:34;;;;;;;;;;;14.50;99.90;;;;;;21022442;28;19924;-78
2021/10/21 02:45:35;;;;;;;;;;;14.40;99.90;;;;;;21030768;28;19913;-78
2021/10/21 02:55:35;;;;;;;;;;;14.30;99.90;;;;;;21028377;28;19973;-79
2021/10/21 03:05:36;;;;;;;;;;;14.30;99.90;;;;;;21027925;28;20023;-79
2021/10/21 03:15:37;;;;;;;;;;;14.30;99.90;;;;;;21027533;28;20007;-78
2021/10/21 03:25:37;;;;;;;;;;;14.30;99.90;;;;;;21021027;28;19974;-79
2021/10/21 03:35:39;;;;;;;;;;;14.50;99.90;;;;;;21024209;28;19916;-78
2021/10/21 03:45:39;;;;;;;;;;;14.80;99.90;;;;;;21028951;28;19999;-79
2021/10/21 03:55:40;;;;;;;;;;;14.30;99.90;;;;;;21019926;28;19917;-80
2021/10/21 04:05:41;;;;;;;;;;;13.70;99.90;;;;;;21010709;28;19944;-79
2021/10/21 04:15:42;;;;;;;;;;;13.60;99.90;;;;;;21035971;28;19938;-80
2021/10/21 04:25:43;;;;;;;;;;;13.40;99.90;;;;;;21014684;28;19927;-78
2021/10/21 04:35:43;;;;;;;;;;;13.20;99.90;;;;;;21014926;28;19983;-79
2021/10/21 04:45:44;;;;;;;;;;;13.40;99.90;;;;;;21022172;28;19912;-78
2021/10/21 04:55:45;;;;;;;;;;;13.40;99.90;;;;;;21015072;28;19969;-78
2021/10/21 05:05:45;;;;;;;;;;;13.30;99.90;;;;;;21020799;28;19975;-77
2021/10/21 05:15:46;;;;;;;;;;;13.30;99.90;;;;;;21023073;28;19916;-79
2021/10/21 05:25:47;;;;;;;;;;;13.30;99.90;;;;;;21034571;28;19948;-78
2021/10/21 05:35:47;;;;;;;;;;;13.20;99.90;;;;;;21040462;28;19921;-78
2021/10/21 05:45:49;;;;;;;;;;;13.10;99.90;;;;;;21033131;28;19913;-78
2021/10/21 05:55:49;;;;;;;;;;;12.90;99.90;;;;;;21024337;28;19923;-79
2021/10/21 06:05:50;;;;;;;;;;;12.90;99.90;;;;;;20986766;28;19912;-79
2021/10/21 06:15:51;;;;;;;;;;;12.90;99.90;;;;;;21028980;28;19924;-79
2021/10/21 06:25:52;;;;;;;;;;;13.00;99.90;;;;;;21021384;28;20461;-78
2021/10/21 06:35:52;;;;;;;;;;;13.10;99.90;;;;;;21022901;28;20015;-78
2021/10/21 06:45:53;;;;;;;;;;;13.20;99.90;;;;;;21018562;28;19997;-79
2021/10/21 06:55:54;;;;;;;;;;;13.20;99.90;;;;;;21021151;28;19921;-79
2021/10/21 07:05:55;;;;;;;;;;;13.20;99.90;;;;;;21012844;28;19943;-79
2021/10/21 07:15:56;;;;;;;;;;;13.20;99.90;;;;;;21098778;22;19924;-79
2021/10/21 07:25:56;;;;;;;;;;;13.20;99.90;;;;;;21083437;28;20254;-78
2021/10/21 07:35:57;;;;;;;;;;;13.30;99.90;;;;;;21078193;28;20400;-79
2021/10/21 07:45:58;;;;;;;;;;;13.90;99.90;;;;;;21091515;28;20286;-79
2021/10/21 07:56:00;;;;;;;;;;;14.00;99.90;;;;;;21097224;28;19916;-78
2021/10/21 08:06:01;;;;;;;;;;;13.80;99.90;;;;;;21060847;28;19912;-78
2021/10/21 08:16:02;;;;;;;;;;;13.40;99.90;;;;;;21000519;28;19920;-79
2021/10/21 08:26:03;;;;;;;;;;;13.50;99.90;;;;;;21083809;28;19922;-79
2021/10/21 08:36:04;;;;;;;;;;;13.30;99.90;;;;;;21002775;28;20294;-78
2021/10/21 08:46:05;;;;;;;;;;;13.60;99.90;;;;;;21016448;28;19912;-79
2021/10/21 08:56:06;;;;;;;;;;;13.90;99.90;;;;;;21014420;28;19916;-79
2021/10/21 09:16:31;;;;;;;;;;;15.20;99.90;;;;;;20970379;28;19939;-79
2021/10/21 09:26:32;;;;;;;;;;;14.60;99.90;;;;;;21004363;28;19916;-79
2021/10/21 09:36:34;;;;;;;;;;;15.60;99.90;;;;;;21006717;28;19916;-79
2021/10/21 09:46:41;;;;;;;;;;;15.90;99.90;;;;;;20970661;28;19912;-80
2021/10/21 09:56:52;;;;;;;;;;;16.30;99.90;;;;;;20984636;28;19916;-79
2021/10/21 10:06:58;;;;;;;;;;;14.80;99.90;;;;;;21002503;28;20360;-79
2021/10/21 10:16:59;;;;;;;;;;;15.80;99.90;;;;;;21003315;28;19916;-79
2021/10/21 10:27:03;;;;;;;;;;;16.80;99.90;;;;;;21005950;28;19947;-79
2021/10/21 10:37:12;;;;;;;;;;;17.30;99.90;;;;;;20992215;28;19920;-79
2021/10/21 10:47:13;;;;;;;;;;;15.80;99.90;;;;;;20998747;28;19974;-80
2021/10/21 10:57:23;;;;;;;;;;;15.70;99.90;;;;;;20975781;28;19924;-80
2021/10/21 11:07:28;;;;;;;;;;;15.80;99.90;;;;;;20958735;28;19927;-78
2021/10/21 11:17:42;;;;;;;;;;;16.20;99.90;;;;;;20974053;28;20275;-80
2021/10/21 11:27:44;;;;;;;;;;;16.70;99.90;;;;;;20993413;28;19912;-79
2021/10/21 11:37:52;;;;;;;;;;;16.50;99.90;;;;;;20977870;28;19920;-79
2021/10/21 11:47:57;;;;;;;;;;;16.50;99.90;;;;;;20977901;28;20386;-78
2021/10/21 11:58:00;;;;;;;;;;;15.70;99.90;;;;;;20974734;28;19917;-78
2021/10/21 12:08:01;;;;;;;;;;;15.30;99.90;;;;;;20991238;28;19922;-79
2021/10/21 12:18:03;;;;;;;;;;;15.30;99.90;;;;;;20990060;28;19963;-79
2021/10/21 12:28:04;;;;;;;;;;;15.90;99.90;;;;;;20958596;28;20046;-79
2021/10/21 12:38:05;;;;;;;;;;;16.40;99.90;;;;;;20986001;28;19955;-78
2021/10/21 12:48:20;;;;;;;;;;;17.00;99.90;;;;;;21044258;28;19916;-78
2021/10/21 12:58:21;;;;;;;;;;;16.90;99.90;;;;;;20985227;28;20405;-79
2021/10/21 13:08:21;;;;;;;;;;;17.60;99.90;;;;;;21004910;22;19925;-77
2021/10/21 13:18:22;;;;;;;;;;;17.20;99.90;;;;;;20884006;28;20050;-78
2021/10/21 13:28:23;;;;;;;;;;;17.20;99.90;;;;;;20917352;28;19923;-77
2021/10/21 13:38:24;;;;;;;;;;;17.30;99.90;;;;;;20899481;28;20016;-77
2021/10/21 13:48:25;;;;;;;;;;;17.30;99.90;;;;;;20916149;28;19912;-77
2021/10/21 13:58:26;;;;;;;;;;;16.80;99.90;;;;;;20897590;28;19917;-77
2021/10/21 14:08:27;;;;;;;;;;;16.70;99.90;;;;;;20913844;28;19923;-77
2021/10/21 14:18:29;;;;;;;;;;;16.90;99.90;;;;;;20913627;28;19917;-78
2021/10/21 14:28:30;;;;;;;;;;;17.00;99.90;;;;;;20911746;28;19920;-78
2021/10/21 14:38:33;;;;;;;;;;;16.90;99.90;;;;;;20911601;28;20485;-78
2021/10/21 14:48:34;;;;;;;;;;;17.00;99.90;;;;;;20892804;28;20299;-78
2021/10/21 14:58:35;;;;;;;;;;;17.00;99.90;;;;;;20881633;28;19932;-81
2021/10/21 15:09:05;;;;;;;;;;;17.00;99.90;;;;;;20876388;28;19935;-78
2021/10/21 15:29:21;;;;;;;;;;;16.40;99.90;;;;;;20888380;28;19917;-77
2021/10/21 15:39:27;;;;;;;;;;;16.50;99.90;;;;;;20874113;28;20291;-80
2021/10/21 15:49:53;;;;;;;;;;;15.80;99.90;;;;;;20852069;28;20012;-79
2021/10/21 16:10:27;;;;;;;;;;;14.90;99.90;;;;;;20900438;28;19947;-77
2021/10/21 16:20:31;;;;;;;;;;;14.50;99.90;;;;;;20898589;28;19920;-77
2021/10/21 16:30:32;;;;;;;;;;;14.40;99.90;;;;;;20898354;28;20482;-78
2021/10/21 16:40:35;;;;;;;;;;;14.10;99.90;;;;;;20880879;28;19920;-79
2021/10/21 16:50:36;;;;;;;;;;;13.80;99.90;;;;;;20877342;28;19967;-79
2021/10/21 17:00:37;;;;;;;;;;;13.60;99.90;;;;;;20895166;28;20011;-78
2021/10/21 17:10:37;;;;;;;;;;;13.30;99.90;;;;;;20896192;28;19932;-78
2021/10/21 17:20:40;;;;;;;;;;;12.90;99.90;;;;;;20904695;28;19921;-78
2021/10/21 17:30:40;;;;;;;;;;;12.70;99.90;;;;;;20907871;28;19947;-78
2021/10/21 17:40:41;;;;;;;;;;;12.50;99.90;;;;;;20897025;28;19923;-78
2021/10/21 17:50:43;;;;;;;;;;;12.20;99.90;;;;;;20893501;28;19932;-78
2021/10/21 18:00:45;;;;;;;;;;;12.10;99.90;;;;;;20890100;28;19966;-77
2021/10/21 18:10:46;;;;;;;;;;;12.10;99.90;;;;;;20880815;28;19931;-78
2021/10/21 18:20:47;;;;;;;;;;;11.70;99.90;;;;;;20878619;28;20631;-77
2021/10/21 18:30:48;;;;;;;;;;;11.30;99.90;;;;;;20870963;28;20018;-77
2021/10/21 18:40:50;;;;;;;;;;;11.30;99.90;;;;;;20867932;28;19921;-77
2021/10/21 18:50:51;;;;;;;;;;;11.40;99.90;;;;;;20875831;28;19932;-77
2021/10/21 19:00:52;;;;;;;;;;;11.40;99.90;;;;;;20871034;28;19920;-78
2021/10/21 19:10:52;;;;;;;;;;;11.50;99.90;;;;;;20882623;28;19975;-79
2021/10/21 19:20:55;;;;;;;;;;;11.40;99.90;;;;;;20881148;28;19966;-78
2021/10/21 19:30:55;;;;;;;;;;;11.60;99.90;;;;;;20899397;28;19923;-77
2021/10/21 19:40:56;;;;;;;;;;;11.50;99.90;;;;;;20915304;28;20007;-77
2021/10/21 19:50:59;;;;;;;;;;;11.40;99.90;;;;;;20922731;28;19964;-76
2021/10/21 20:01:01;;;;;;;;;;;11.40;99.90;;;;;;20922181;28;19959;-77
2021/10/21 20:11:05;;;;;;;;;;;11.60;99.90;;;;;;20925695;28;20011;-78
2021/10/21 20:21:08;;;;;;;;;;;11.60;99.90;;;;;;20923065;28;19928;-77
2021/10/21 20:31:09;;;;;;;;;;;11.60;99.90;;;;;;20903200;28;20018;-76
2021/10/21 20:41:10;;;;;;;;;;;11.90;99.90;;;;;;20993348;28;19913;-76
2021/10/21 20:51:11;;;;;;;;;;;12.10;99.90;;;;;;20985832;28;20007;-77
2021/10/21 21:01:13;;;;;;;;;;;12.20;99.90;;;;;;20983904;28;20325;-76
2021/10/21 21:11:14;;;;;;;;;;;12.20;99.90;;;;;;21001353;28;19921;-77
2021/10/21 21:21:15;;;;;;;;;;;11.90;99.90;;;;;;20982635;28;19982;-77
2021/10/21 21:31:15;;;;;;;;;;;11.70;99.90;;;;;;21007927;28;19916;-78
2021/10/21 21:41:16;;;;;;;;;;;11.60;99.90;;;;;;20999570;28;20003;-78
2021/10/21 21:51:17;;;;;;;;;;;11.10;99.90;;;;;;21001550;28;19920;-78
2021/10/21 22:01:18;;;;;;;;;;;10.90;99.90;;;;;;20998369;28;20445;-78
2021/10/21 22:11:19;;;;;;;;;;;10.60;99.90;;;;;;20998976;28;20442;-78
2021/10/21 22:21:22;;;;;;;;;;;10.40;99.90;;;;;;20997694;28;19966;-77
2021/10/21 22:31:23;;;;;;;;;;;10.30;99.90;;;;;;21003650;28;19924;-78
2021/10/21 22:41:23;;;;;;;;;;;10.60;99.90;;;;;;20999015;28;19913;-78
2021/10/21 22:51:24;;;;;;;;;;;10.60;99.90;;;;;;20977127;28;19967;-77
2021/10/21 23:01:25;;;;;;;;;;;10.70;99.90;;;;;;20993453;28;19918;-78
2021/10/21 23:11:26;;;;;;;;;;;10.60;99.90;;;;;;20993983;28;20290;-78
2021/10/21 23:21:29;;;;;;;;;;;10.60;99.90;;;;;;20994154;28;19919;-78
2021/10/21 23:31:30;;;;;;;;;;;10.40;99.90;;;;;;20972461;28;19924;-78
2021/10/21 23:41:32;;;;;;;;;;;10.40;99.90;;;;;;20908389;28;19967;-78
2021/10/21 23:51:32;;;;;;;;;;;10.30;99.90;;;;;;20908927;28;19917;-78
